Fargo (FAR/KFAR)

Map

Destinations

Information

Location
Fargo, ND
Local Time
00:33 / 12:33 am
GMT Time
06:33 / 6:33 am
Gates
Unassigned
No FAA reported delays
METAR KFAR 220553Z 10003KT 8SM CLR 02/01 A2964 RMK AO2 SLP046 60000 T00170011 10067 20017 400890000 58006
TAF KFAR 220540Z 2206/2306 11004KT P6SM BKN080 FM220900 24004KT P6SM BKN015 FM221100 30005KT P6SM BKN010 FM221300 30005KT P6SM BKN003 FM221600 31008KT P6SM OVC008 FM221800 33010KT 3SM -RA OVC008 FM222100 34014G23KT P6SM OVC003 FM222300 35014KT P6SM OVC003 FM230400 35011KT P6SM BKN010
  • No charts available